sensor_id;sensor_type;location;lat;lon;timestamp;temperature;humidity
21582;DHT22;10952;50.836;4.348;2023-08-30T00:00:05;17.10;99.90
21582;DHT22;10952;50.836;4.348;2023-08-30T00:02:31;17.00;99.90
21582;DHT22;10952;50.836;4.348;2023-08-30T00:05:00;17.00;99.90
21582;DHT22;10952;50.836;4.348;2023-08-30T00:07:26;17.00;99.90
21582;DHT22;10952;50.836;4.348;2023-08-30T00:09:53;17.00;99.90
21582;DHT22;10952;50.836;4.348;2023-08-30T00:12:19;17.00;99.90
21582;DHT22;10952;50.836;4.348;2023-08-30T00:14:45;17.00;99.90
21582;DHT22;10952;50.836;4.348;2023-08-30T00:17:10;17.00;99.90
21582;DHT22;10952;50.836;4.348;2023-08-30T00:19:36;16.90;99.90
21582;DHT22;10952;50.836;4.348;2023-08-30T00:22:02;16.90;99.90
21582;DHT22;10952;50.836;4.348;2023-08-30T00:24:29;16.90;99.90
21582;DHT22;10952;50.836;4.348;2023-08-30T00:26:55;16.80;99.90
21582;DHT22;10952;50.836;4.348;2023-08-30T00:29:20;16.70;99.90
21582;DHT22;10952;50.836;4.348;2023-08-30T00:31:46;16.60;99.90
21582;DHT22;10952;50.836;4.348;2023-08-30T00:34:12;16.60;99.90
21582;DHT22;10952;50.836;4.348;2023-08-30T00:36:37;16.70;99.90
21582;DHT22;10952;50.836;4.348;2023-08-30T00:39:03;16.70;99.90
21582;DHT22;10952;50.836;4.348;2023-08-30T00:41:29;16.60;99.90
21582;DHT22;10952;50.836;4.348;2023-08-30T00:43:55;16.60;99.90
21582;DHT22;10952;50.836;4.348;2023-08-30T00:46:20;16.60;99.90
21582;DHT22;10952;50.836;4.348;2023-08-30T00:48:47;16.50;99.90
21582;DHT22;10952;50.836;4.348;2023-08-30T00:51:13;16.40;99.90
21582;DHT22;10952;50.836;4.348;2023-08-30T00:53:39;16.50;99.90
21582;DHT22;10952;50.836;4.348;2023-08-30T00:56:05;16.40;99.90
21582;DHT22;10952;50.836;4.348;2023-08-30T00:58:32;16.50;99.90
21582;DHT22;10952;50.836;4.348;2023-08-30T01:00:58;16.50;99.90
21582;DHT22;10952;50.836;4.348;2023-08-30T01:03:24;16.50;99.90
21582;DHT22;10952;50.836;4.348;2023-08-30T01:05:50;16.50;99.90
21582;DHT22;10952;50.836;4.348;2023-08-30T01:08:15;16.40;99.90
21582;DHT22;10952;50.836;4.348;2023-08-30T01:10:53;16.40;99.90
21582;DHT22;10952;50.836;4.348;2023-08-30T01:13:20;16.40;99.90
21582;DHT22;10952;50.836;4.348;2023-08-30T01:15:47;16.40;99.90
21582;DHT22;10952;50.836;4.348;2023-08-30T01:18:18;16.40;99.90
21582;DHT22;10952;50.836;4.348;2023-08-30T01:20:45;16.40;99.90
21582;DHT22;10952;50.836;4.348;2023-08-30T01:23:26;16.40;99.90
21582;DHT22;10952;50.836;4.348;2023-08-30T01:28:26;16.30;99.90
21582;DHT22;10952;50.836;4.348;2023-08-30T01:30:55;16.20;99.90
21582;DHT22;10952;50.836;4.348;2023-08-30T01:33:24;16.20;99.90
21582;DHT22;10952;50.836;4.348;2023-08-30T01:35:55;16.10;99.90
21582;DHT22;10952;50.836;4.348;2023-08-30T01:38:23;16.10;99.90
21582;DHT22;10952;50.836;4.348;2023-08-30T01:40:49;16.10;99.90
21582;DHT22;10952;50.836;4.348;2023-08-30T01:43:16;16.10;99.90
21582;DHT22;10952;50.836;4.348;2023-08-30T01:45:43;16.00;99.90
21582;DHT22;10952;50.836;4.348;2023-08-30T01:48:17;16.00;99.90
21582;DHT22;10952;50.836;4.348;2023-08-30T01:50:44;16.10;99.90
21582;DHT22;10952;50.836;4.348;2023-08-30T01:53:12;16.10;99.90
21582;DHT22;10952;50.836;4.348;2023-08-30T01:55:39;16.20;99.90
21582;DHT22;10952;50.836;4.348;2023-08-30T01:58:06;16.30;99.90
21582;DHT22;10952;50.836;4.348;2023-08-30T02:00:31;16.10;99.90
21582;DHT22;10952;50.836;4.348;2023-08-30T02:02:58;16.10;99.90
21582;DHT22;10952;50.836;4.348;2023-08-30T02:05:24;16.00;99.90
21582;DHT22;10952;50.836;4.348;2023-08-30T02:07:51;15.90;99.90
21582;DHT22;10952;50.836;4.348;2023-08-30T02:10:25;15.90;99.90
21582;DHT22;10952;50.836;4.348;2023-08-30T02:12:54;15.80;99.90
21582;DHT22;10952;50.836;4.348;2023-08-30T02:15:24;15.90;99.90
21582;DHT22;10952;50.836;4.348;2023-08-30T02:17:51;15.90;99.90
21582;DHT22;10952;50.836;4.348;2023-08-30T02:20:17;16.00;99.90
21582;DHT22;10952;50.836;4.348;2023-08-30T02:22:43;16.00;99.90
21582;DHT22;10952;50.836;4.348;2023-08-30T02:25:09;16.00;99.90
21582;DHT22;10952;50.836;4.348;2023-08-30T02:27:35;16.00;99.90
21582;DHT22;10952;50.836;4.348;2023-08-30T02:30:01;16.10;99.90
21582;DHT22;10952;50.836;4.348;2023-08-30T02:32:28;16.20;99.90
21582;DHT22;10952;50.836;4.348;2023-08-30T02:34:55;16.20;99.90
21582;DHT22;10952;50.836;4.348;2023-08-30T02:37:21;16.20;99.90
21582;DHT22;10952;50.836;4.348;2023-08-30T02:39:47;16.20;99.90
21582;DHT22;10952;50.836;4.348;2023-08-30T02:42:13;16.30;99.90
21582;DHT22;10952;50.836;4.348;2023-08-30T02:44:39;16.40;99.90
21582;DHT22;10952;50.836;4.348;2023-08-30T02:47:04;16.40;99.90
21582;DHT22;10952;50.836;4.348;2023-08-30T02:49:30;16.40;99.90
21582;DHT22;10952;50.836;4.348;2023-08-30T02:51:56;16.30;99.90
21582;DHT22;10952;50.836;4.348;2023-08-30T02:54:21;16.20;99.90
21582;DHT22;10952;50.836;4.348;2023-08-30T02:56:48;16.20;99.90
21582;DHT22;10952;50.836;4.348;2023-08-30T02:59:14;16.30;99.90
21582;DHT22;10952;50.836;4.348;2023-08-30T03:01:40;16.40;99.90
21582;DHT22;10952;50.836;4.348;2023-08-30T03:04:06;16.50;99.90
21582;DHT22;10952;50.836;4.348;2023-08-30T03:06:33;16.50;99.90
21582;DHT22;10952;50.836;4.348;2023-08-30T03:08:59;16.50;99.90
21582;DHT22;10952;50.836;4.348;2023-08-30T03:11:25;16.50;99.90
21582;DHT22;10952;50.836;4.348;2023-08-30T03:13:52;16.40;99.90
21582;DHT22;10952;50.836;4.348;2023-08-30T03:16:19;16.40;99.90
21582;DHT22;10952;50.836;4.348;2023-08-30T03:18:44;16.40;99.90
21582;DHT22;10952;50.836;4.348;2023-08-30T03:21:11;16.40;99.90
21582;DHT22;10952;50.836;4.348;2023-08-30T03:23:39;16.30;99.90
21582;DHT22;10952;50.836;4.348;2023-08-30T03:26:09;16.30;99.90
21582;DHT22;10952;50.836;4.348;2023-08-30T03:28:35;16.20;99.90
21582;DHT22;10952;50.836;4.348;2023-08-30T03:31:01;16.30;99.90
21582;DHT22;10952;50.836;4.348;2023-08-30T03:33:26;16.20;99.90
21582;DHT22;10952;50.836;4.348;2023-08-30T03:35:52;16.10;99.90
21582;DHT22;10952;50.836;4.348;2023-08-30T03:38:18;16.00;99.90
21582;DHT22;10952;50.836;4.348;2023-08-30T03:40:43;16.00;99.90
21582;DHT22;10952;50.836;4.348;2023-08-30T03:43:09;16.00;99.90
21582;DHT22;10952;50.836;4.348;2023-08-30T03:45:36;16.00;99.90
21582;DHT22;10952;50.836;4.348;2023-08-30T03:48:04;15.90;99.90
21582;DHT22;10952;50.836;4.348;2023-08-30T03:50:29;15.80;99.90
21582;DHT22;10952;50.836;4.348;2023-08-30T03:52:55;15.80;99.90
21582;DHT22;10952;50.836;4.348;2023-08-30T03:55:21;15.70;99.90
21582;DHT22;10952;50.836;4.348;2023-08-30T03:57:48;15.80;99.90
21582;DHT22;10952;50.836;4.348;2023-08-30T04:00:14;15.80;99.90
21582;DHT22;10952;50.836;4.348;2023-08-30T04:02:40;15.80;99.90
21582;DHT22;10952;50.836;4.348;2023-08-30T04:05:06;15.80;99.90
21582;DHT22;10952;50.836;4.348;2023-08-30T04:07:35;15.80;99.90
21582;DHT22;10952;50.836;4.348;2023-08-30T04:10:02;15.70;99.90
21582;DHT22;10952;50.836;4.348;2023-08-30T04:12:31;15.80;99.90
21582;DHT22;10952;50.836;4.348;2023-08-30T04:14:57;15.90;99.90
21582;DHT22;10952;50.836;4.348;2023-08-30T04:17:23;16.00;99.90
21582;DHT22;10952;50.836;4.348;2023-08-30T04:19:51;16.10;99.90
21582;DHT22;10952;50.836;4.348;2023-08-30T04:22:18;16.10;99.90
21582;DHT22;10952;50.836;4.348;2023-08-30T04:24:44;16.10;99.90
21582;DHT22;10952;50.836;4.348;2023-08-30T04:27:10;16.20;99.90
21582;DHT22;10952;50.836;4.348;2023-08-30T04:29:36;16.20;99.90
21582;DHT22;10952;50.836;4.348;2023-08-30T04:32:02;16.20;99.90
21582;DHT22;10952;50.836;4.348;2023-08-30T04:34:27;16.20;99.90
21582;DHT22;10952;50.836;4.348;2023-08-30T04:36:54;16.10;99.90
21582;DHT22;10952;50.836;4.348;2023-08-30T04:39:20;16.10;99.90
21582;DHT22;10952;50.836;4.348;2023-08-30T04:41:46;15.90;99.90
21582;DHT22;10952;50.836;4.348;2023-08-30T04:44:11;15.90;99.90
21582;DHT22;10952;50.836;4.348;2023-08-30T04:46:38;15.90;99.90
21582;DHT22;10952;50.836;4.348;2023-08-30T04:49:04;15.90;99.90
21582;DHT22;10952;50.836;4.348;2023-08-30T04:51:30;15.80;99.90
21582;DHT22;10952;50.836;4.348;2023-08-30T04:53:55;15.80;99.90
21582;DHT22;10952;50.836;4.348;2023-08-30T04:56:21;15.70;99.90
21582;DHT22;10952;50.836;4.348;2023-08-30T04:58:47;15.70;99.90
21582;DHT22;10952;50.836;4.348;2023-08-30T05:01:13;15.70;99.90
21582;DHT22;10952;50.836;4.348;2023-08-30T05:03:39;15.70;99.90
21582;DHT22;10952;50.836;4.348;2023-08-30T05:06:05;15.70;99.90
21582;DHT22;10952;50.836;4.348;2023-08-30T05:08:31;15.70;99.90
21582;DHT22;10952;50.836;4.348;2023-08-30T05:10:57;15.70;99.90
21582;DHT22;10952;50.836;4.348;2023-08-30T05:13:23;15.70;99.90
21582;DHT22;10952;50.836;4.348;2023-08-30T05:15:48;15.70;99.90
21582;DHT22;10952;50.836;4.348;2023-08-30T05:18:14;15.70;99.90
21582;DHT22;10952;50.836;4.348;2023-08-30T05:20:40;15.70;99.90
21582;DHT22;10952;50.836;4.348;2023-08-30T05:23:06;15.70;99.90
21582;DHT22;10952;50.836;4.348;2023-08-30T05:25:31;15.60;99.90
21582;DHT22;10952;50.836;4.348;2023-08-30T05:27:57;15.50;99.90
21582;DHT22;10952;50.836;4.348;2023-08-30T05:30:23;15.50;99.90
21582;DHT22;10952;50.836;4.348;2023-08-30T05:32:48;15.40;99.90
21582;DHT22;10952;50.836;4.348;2023-08-30T05:35:14;15.40;99.90
21582;DHT22;10952;50.836;4.348;2023-08-30T05:37:40;15.20;99.90
21582;DHT22;10952;50.836;4.348;2023-08-30T05:40:06;15.30;99.90
21582;DHT22;10952;50.836;4.348;2023-08-30T05:42:33;15.20;99.90
21582;DHT22;10952;50.836;4.348;2023-08-30T05:44:59;15.10;99.90
21582;DHT22;10952;50.836;4.348;2023-08-30T05:47:24;15.10;99.90
21582;DHT22;10952;50.836;4.348;2023-08-30T05:49:50;15.20;99.90
21582;DHT22;10952;50.836;4.348;2023-08-30T05:52:16;15.30;99.90
21582;DHT22;10952;50.836;4.348;2023-08-30T05:54:42;15.30;99.90
21582;DHT22;10952;50.836;4.348;2023-08-30T05:57:09;15.30;99.90
21582;DHT22;10952;50.836;4.348;2023-08-30T05:59:34;15.20;99.90
21582;DHT22;10952;50.836;4.348;2023-08-30T06:02:01;15.30;99.90
21582;DHT22;10952;50.836;4.348;2023-08-30T06:04:26;15.40;99.90
21582;DHT22;10952;50.836;4.348;2023-08-30T06:06:52;15.40;99.90
21582;DHT22;10952;50.836;4.348;2023-08-30T06:09:18;15.50;99.90
21582;DHT22;10952;50.836;4.348;2023-08-30T06:11:43;15.50;99.90
21582;DHT22;10952;50.836;4.348;2023-08-30T06:14:09;15.60;99.90
21582;DHT22;10952;50.836;4.348;2023-08-30T06:16:35;15.70;99.90
21582;DHT22;10952;50.836;4.348;2023-08-30T06:19:00;15.80;99.90
21582;DHT22;10952;50.836;4.348;2023-08-30T06:21:26;16.00;99.90
21582;DHT22;10952;50.836;4.348;2023-08-30T06:23:51;16.00;99.90
21582;DHT22;10952;50.836;4.348;2023-08-30T06:26:18;16.10;99.90
21582;DHT22;10952;50.836;4.348;2023-08-30T06:28:43;16.10;99.90
21582;DHT22;10952;50.836;4.348;2023-08-30T06:31:10;16.10;99.90
21582;DHT22;10952;50.836;4.348;2023-08-30T06:33:35;16.00;99.90
21582;DHT22;10952;50.836;4.348;2023-08-30T06:36:02;16.00;99.90
21582;DHT22;10952;50.836;4.348;2023-08-30T06:38:28;15.90;99.90
21582;DHT22;10952;50.836;4.348;2023-08-30T06:40:54;15.90;99.90
21582;DHT22;10952;50.836;4.348;2023-08-30T06:43:19;15.90;99.90
21582;DHT22;10952;50.836;4.348;2023-08-30T06:45:45;15.80;99.90
21582;DHT22;10952;50.836;4.348;2023-08-30T06:48:11;15.80;99.90
21582;DHT22;10952;50.836;4.348;2023-08-30T06:50:37;15.80;99.90
21582;DHT22;10952;50.836;4.348;2023-08-30T06:53:03;15.80;99.90
21582;DHT22;10952;50.836;4.348;2023-08-30T06:55:29;15.80;99.90
21582;DHT22;10952;50.836;4.348;2023-08-30T06:57:54;15.80;99.90
21582;DHT22;10952;50.836;4.348;2023-08-30T07:00:20;15.70;99.90
21582;DHT22;10952;50.836;4.348;2023-08-30T07:02:46;15.60;99.90
21582;DHT22;10952;50.836;4.348;2023-08-30T07:05:13;15.70;99.90
21582;DHT22;10952;50.836;4.348;2023-08-30T07:07:39;15.70;99.90
21582;DHT22;10952;50.836;4.348;2023-08-30T07:10:05;15.70;99.90
21582;DHT22;10952;50.836;4.348;2023-08-30T07:12:31;15.70;99.90
21582;DHT22;10952;50.836;4.348;2023-08-30T07:14:56;15.80;99.90
21582;DHT22;10952;50.836;4.348;2023-08-30T07:17:22;15.80;99.90
21582;DHT22;10952;50.836;4.348;2023-08-30T07:19:49;15.70;99.90
21582;DHT22;10952;50.836;4.348;2023-08-30T07:22:15;15.70;99.90
21582;DHT22;10952;50.836;4.348;2023-08-30T07:24:44;15.60;99.90
21582;DHT22;10952;50.836;4.348;2023-08-30T07:27:10;15.70;99.90
21582;DHT22;10952;50.836;4.348;2023-08-30T07:29:38;15.60;99.90
21582;DHT22;10952;50.836;4.348;2023-08-30T07:32:05;15.60;99.90
21582;DHT22;10952;50.836;4.348;2023-08-30T07:34:31;15.70;99.90
21582;DHT22;10952;50.836;4.348;2023-08-30T07:36:56;15.60;99.90
21582;DHT22;10952;50.836;4.348;2023-08-30T07:39:22;15.60;99.90
21582;DHT22;10952;50.836;4.348;2023-08-30T07:41:48;15.60;99.90
21582;DHT22;10952;50.836;4.348;2023-08-30T07:44:13;15.60;99.90
21582;DHT22;10952;50.836;4.348;2023-08-30T07:46:39;15.70;99.90
21582;DHT22;10952;50.836;4.348;2023-08-30T07:49:05;15.80;99.90
21582;DHT22;10952;50.836;4.348;2023-08-30T07:51:31;15.80;99.90
21582;DHT22;10952;50.836;4.348;2023-08-30T07:53:56;15.70;99.90
21582;DHT22;10952;50.836;4.348;2023-08-30T07:56:22;15.80;99.90
21582;DHT22;10952;50.836;4.348;2023-08-30T07:58:48;15.80;99.90
21582;DHT22;10952;50.836;4.348;2023-08-30T08:01:14;15.70;99.90
21582;DHT22;10952;50.836;4.348;2023-08-30T08:03:39;15.80;99.90
21582;DHT22;10952;50.836;4.348;2023-08-30T08:06:06;15.80;99.90
21582;DHT22;10952;50.836;4.348;2023-08-30T08:08:32;15.90;99.90
21582;DHT22;10952;50.836;4.348;2023-08-30T08:10:59;16.00;99.90
21582;DHT22;10952;50.836;4.348;2023-08-30T08:13:25;15.90;99.90
21582;DHT22;10952;50.836;4.348;2023-08-30T08:15:51;15.90;99.90
21582;DHT22;10952;50.836;4.348;2023-08-30T08:18:16;16.00;99.90
21582;DHT22;10952;50.836;4.348;2023-08-30T08:20:42;16.00;99.90
21582;DHT22;10952;50.836;4.348;2023-08-30T08:23:08;16.00;99.90
21582;DHT22;10952;50.836;4.348;2023-08-30T08:25:34;16.10;99.90
21582;DHT22;10952;50.836;4.348;2023-08-30T08:28:00;16.10;99.90
21582;DHT22;10952;50.836;4.348;2023-08-30T08:30:25;16.10;99.90
21582;DHT22;10952;50.836;4.348;2023-08-30T08:32:51;16.20;99.90
21582;DHT22;10952;50.836;4.348;2023-08-30T08:35:17;16.40;99.90
21582;DHT22;10952;50.836;4.348;2023-08-30T08:37:42;16.50;99.90
21582;DHT22;10952;50.836;4.348;2023-08-30T08:40:08;16.60;99.90
21582;DHT22;10952;50.836;4.348;2023-08-30T08:42:34;16.70;99.90
21582;DHT22;10952;50.836;4.348;2023-08-30T08:45:02;16.70;99.90
21582;DHT22;10952;50.836;4.348;2023-08-30T08:47:30;16.80;99.90
21582;DHT22;10952;50.836;4.348;2023-08-30T08:49:56;16.80;99.90
21582;DHT22;10952;50.836;4.348;2023-08-30T08:52:24;17.00;99.90
21582;DHT22;10952;50.836;4.348;2023-08-30T08:54:50;17.10;99.90
21582;DHT22;10952;50.836;4.348;2023-08-30T08:57:16;17.20;99.90
21582;DHT22;10952;50.836;4.348;2023-08-30T08:59:42;17.30;99.90
21582;DHT22;10952;50.836;4.348;2023-08-30T09:02:11;17.40;99.90
21582;DHT22;10952;50.836;4.348;2023-08-30T09:04:39;17.50;99.90
21582;DHT22;10952;50.836;4.348;2023-08-30T09:07:05;17.60;99.90
21582;DHT22;10952;50.836;4.348;2023-08-30T09:09:31;17.70;99.90
21582;DHT22;10952;50.836;4.348;2023-08-30T09:11:57;17.80;99.90
21582;DHT22;10952;50.836;4.348;2023-08-30T09:14:22;17.70;99.90
21582;DHT22;10952;50.836;4.348;2023-08-30T09:17:02;17.80;99.90
21582;DHT22;10952;50.836;4.348;2023-08-30T09:19:28;17.70;99.90
21582;DHT22;10952;50.836;4.348;2023-08-30T09:21:55;17.90;99.90
21582;DHT22;10952;50.836;4.348;2023-08-30T09:24:21;17.90;99.90
21582;DHT22;10952;50.836;4.348;2023-08-30T09:26:52;18.00;99.90
21582;DHT22;10952;50.836;4.348;2023-08-30T09:29:19;17.90;99.90
21582;DHT22;10952;50.836;4.348;2023-08-30T09:31:46;18.10;99.90
21582;DHT22;10952;50.836;4.348;2023-08-30T09:34:12;18.20;99.90
21582;DHT22;10952;50.836;4.348;2023-08-30T09:36:39;18.30;99.90
21582;DHT22;10952;50.836;4.348;2023-08-30T09:39:09;18.30;99.90
21582;DHT22;10952;50.836;4.348;2023-08-30T09:41:36;18.30;99.90
21582;DHT22;10952;50.836;4.348;2023-08-30T09:46:48;18.00;99.90
21582;DHT22;10952;50.836;4.348;2023-08-30T09:49:14;18.10;99.90
21582;DHT22;10952;50.836;4.348;2023-08-30T09:51:41;18.20;99.90
21582;DHT22;10952;50.836;4.348;2023-08-30T09:54:17;18.10;99.90
21582;DHT22;10952;50.836;4.348;2023-08-30T09:56:44;18.10;99.90
21582;DHT22;10952;50.836;4.348;2023-08-30T09:59:11;18.10;99.90
21582;DHT22;10952;50.836;4.348;2023-08-30T10:01:37;18.00;99.90
21582;DHT22;10952;50.836;4.348;2023-08-30T10:04:04;18.10;99.90
21582;DHT22;10952;50.836;4.348;2023-08-30T10:06:32;18.00;99.90
21582;DHT22;10952;50.836;4.348;2023-08-30T10:08:59;18.00;99.90
21582;DHT22;10952;50.836;4.348;2023-08-30T10:11:27;17.90;99.90
21582;DHT22;10952;50.836;4.348;2023-08-30T10:13:55;17.80;99.90
21582;DHT22;10952;50.836;4.348;2023-08-30T10:16:22;17.60;99.90
21582;DHT22;10952;50.836;4.348;2023-08-30T10:18:54;17.60;99.90
21582;DHT22;10952;50.836;4.348;2023-08-30T10:21:23;17.60;99.90
21582;DHT22;10952;50.836;4.348;2023-08-30T10:23:51;17.60;99.90
21582;DHT22;10952;50.836;4.348;2023-08-30T10:26:18;17.70;99.90
21582;DHT22;10952;50.836;4.348;2023-08-30T10:28:44;17.90;99.90
21582;DHT22;10952;50.836;4.348;2023-08-30T10:31:12;18.00;99.90
21582;DHT22;10952;50.836;4.348;2023-08-30T10:33:57;18.20;99.90
21582;DHT22;10952;50.836;4.348;2023-08-30T10:36:24;18.40;99.90
21582;DHT22;10952;50.836;4.348;2023-08-30T10:38:51;18.60;99.90
21582;DHT22;10952;50.836;4.348;2023-08-30T10:41:35;18.90;99.90
21582;DHT22;10952;50.836;4.348;2023-08-30T10:44:02;19.20;99.90
21582;DHT22;10952;50.836;4.348;2023-08-30T10:46:30;19.40;99.90
21582;DHT22;10952;50.836;4.348;2023-08-30T10:48:56;19.50;99.90
21582;DHT22;10952;50.836;4.348;2023-08-30T10:51:36;19.60;99.90
21582;DHT22;10952;50.836;4.348;2023-08-30T10:54:11;19.70;99.90
21582;DHT22;10952;50.836;4.348;2023-08-30T10:56:48;19.70;99.90
21582;DHT22;10952;50.836;4.348;2023-08-30T10:59:20;19.90;99.90
21582;DHT22;10952;50.836;4.348;2023-08-30T11:01:47;19.90;99.90
21582;DHT22;10952;50.836;4.348;2023-08-30T11:04:16;19.90;99.90
21582;DHT22;10952;50.836;4.348;2023-08-30T11:06:46;19.80;99.90
21582;DHT22;10952;50.836;4.348;2023-08-30T11:09:16;19.50;99.90
21582;DHT22;10952;50.836;4.348;2023-08-30T11:11:49;19.60;99.90
21582;DHT22;10952;50.836;4.348;2023-08-30T11:14:16;19.70;99.90
21582;DHT22;10952;50.836;4.348;2023-08-30T11:16:42;19.90;99.90
21582;DHT22;10952;50.836;4.348;2023-08-30T11:19:10;20.20;99.90
21582;DHT22;10952;50.836;4.348;2023-08-30T11:21:38;20.50;99.90
21582;DHT22;10952;50.836;4.348;2023-08-30T11:24:05;20.60;99.90
21582;DHT22;10952;50.836;4.348;2023-08-30T11:26:31;20.90;99.90
21582;DHT22;10952;50.836;4.348;2023-08-30T11:28:57;21.20;99.90
21582;DHT22;10952;50.836;4.348;2023-08-30T11:31:26;21.30;99.90
21582;DHT22;10952;50.836;4.348;2023-08-30T11:33:57;21.00;99.90
21582;DHT22;10952;50.836;4.348;2023-08-30T11:36:27;20.80;99.90
21582;DHT22;10952;50.836;4.348;2023-08-30T11:38:54;20.60;99.90
21582;DHT22;10952;50.836;4.348;2023-08-30T11:41:20;20.80;99.90
21582;DHT22;10952;50.836;4.348;2023-08-30T11:43:47;21.00;99.90
21582;DHT22;10952;50.836;4.348;2023-08-30T11:46:15;21.30;99.90
21582;DHT22;10952;50.836;4.348;2023-08-30T11:48:42;21.60;99.90
21582;DHT22;10952;50.836;4.348;2023-08-30T11:51:08;22.00;99.90
21582;DHT22;10952;50.836;4.348;2023-08-30T11:53:34;22.70;99.90
21582;DHT22;10952;50.836;4.348;2023-08-30T11:56:01;23.30;99.90
21582;DHT22;10952;50.836;4.348;2023-08-30T11:58:27;24.00;99.90
21582;DHT22;10952;50.836;4.348;2023-08-30T12:00:53;24.10;99.90
21582;DHT22;10952;50.836;4.348;2023-08-30T12:03:22;23.60;99.90
21582;DHT22;10952;50.836;4.348;2023-08-30T12:05:49;22.80;99.90
21582;DHT22;10952;50.836;4.348;2023-08-30T12:08:24;22.10;99.90
21582;DHT22;10952;50.836;4.348;2023-08-30T12:10:51;21.70;99.90
21582;DHT22;10952;50.836;4.348;2023-08-30T12:15:53;21.20;99.90
21582;DHT22;10952;50.836;4.348;2023-08-30T12:18:29;21.00;99.90
21582;DHT22;10952;50.836;4.348;2023-08-30T12:21:02;20.80;99.90
21582;DHT22;10952;50.836;4.348;2023-08-30T12:23:32;20.70;99.90
21582;DHT22;10952;50.836;4.348;2023-08-30T12:26:03;20.80;99.90
21582;DHT22;10952;50.836;4.348;2023-08-30T12:28:36;21.30;99.90
21582;DHT22;10952;50.836;4.348;2023-08-30T12:31:02;22.10;99.90
21582;DHT22;10952;50.836;4.348;2023-08-30T12:33:31;22.70;99.90
21582;DHT22;10952;50.836;4.348;2023-08-30T12:35:58;23.40;99.90
21582;DHT22;10952;50.836;4.348;2023-08-30T12:38:24;23.80;99.90
21582;DHT22;10952;50.836;4.348;2023-08-30T12:40:54;24.70;99.90
21582;DHT22;10952;50.836;4.348;2023-08-30T12:43:21;25.30;99.90
21582;DHT22;10952;50.836;4.348;2023-08-30T12:45:49;25.60;99.90
21582;DHT22;10952;50.836;4.348;2023-08-30T12:48:16;25.30;99.90
21582;DHT22;10952;50.836;4.348;2023-08-30T12:50:45;25.60;99.90
21582;DHT22;10952;50.836;4.348;2023-08-30T12:53:12;25.80;99.90
21582;DHT22;10952;50.836;4.348;2023-08-30T12:55:38;24.80;99.90
21582;DHT22;10952;50.836;4.348;2023-08-30T12:58:07;23.10;99.90
21582;DHT22;10952;50.836;4.348;2023-08-30T13:00:33;22.30;99.90
21582;DHT22;10952;50.836;4.348;2023-08-30T13:02:59;22.40;99.90
21582;DHT22;10952;50.836;4.348;2023-08-30T13:05:26;22.00;99.90
21582;DHT22;10952;50.836;4.348;2023-08-30T13:07:52;21.70;99.90
21582;DHT22;10952;50.836;4.348;2023-08-30T13:10:18;21.60;99.90
21582;DHT22;10952;50.836;4.348;2023-08-30T13:12:44;21.40;99.90
21582;DHT22;10952;50.836;4.348;2023-08-30T13:15:10;21.20;99.90
21582;DHT22;10952;50.836;4.348;2023-08-30T13:17:36;21.00;99.90
21582;DHT22;10952;50.836;4.348;2023-08-30T13:20:02;21.10;99.90
21582;DHT22;10952;50.836;4.348;2023-08-30T13:22:28;21.00;99.90
21582;DHT22;10952;50.836;4.348;2023-08-30T13:24:54;20.90;99.90
21582;DHT22;10952;50.836;4.348;2023-08-30T13:27:20;20.70;99.90
21582;DHT22;10952;50.836;4.348;2023-08-30T13:29:46;20.90;99.90
21582;DHT22;10952;50.836;4.348;2023-08-30T13:32:12;20.80;99.90
21582;DHT22;10952;50.836;4.348;2023-08-30T13:34:38;20.80;99.90
21582;DHT22;10952;50.836;4.348;2023-08-30T13:37:04;21.00;99.90
21582;DHT22;10952;50.836;4.348;2023-08-30T13:39:31;21.50;99.90
21582;DHT22;10952;50.836;4.348;2023-08-30T13:41:57;21.50;99.90
21582;DHT22;10952;50.836;4.348;2023-08-30T13:44:22;21.20;99.90
21582;DHT22;10952;50.836;4.348;2023-08-30T13:46:49;20.90;99.90
21582;DHT22;10952;50.836;4.348;2023-08-30T13:49:16;20.70;99.90
21582;DHT22;10952;50.836;4.348;2023-08-30T13:51:42;20.50;99.90
21582;DHT22;10952;50.836;4.348;2023-08-30T13:54:08;20.20;99.90
21582;DHT22;10952;50.836;4.348;2023-08-30T13:56:33;20.10;99.90
21582;DHT22;10952;50.836;4.348;2023-08-30T13:58:59;20.00;99.90
21582;DHT22;10952;50.836;4.348;2023-08-30T14:01:25;19.80;99.90
21582;DHT22;10952;50.836;4.348;2023-08-30T14:03:50;19.70;99.90
21582;DHT22;10952;50.836;4.348;2023-08-30T14:06:16;19.60;99.90
21582;DHT22;10952;50.836;4.348;2023-08-30T14:08:43;19.80;99.90
21582;DHT22;10952;50.836;4.348;2023-08-30T14:11:08;19.90;99.90
21582;DHT22;10952;50.836;4.348;2023-08-30T14:13:34;19.90;99.90
21582;DHT22;10952;50.836;4.348;2023-08-30T14:16:03;19.90;99.90
21582;DHT22;10952;50.836;4.348;2023-08-30T14:18:31;19.90;99.90
21582;DHT22;10952;50.836;4.348;2023-08-30T14:21:00;19.90;99.90
21582;DHT22;10952;50.836;4.348;2023-08-30T14:23:27;20.00;99.90
21582;DHT22;10952;50.836;4.348;2023-08-30T14:26:04;20.10;99.90
21582;DHT22;10952;50.836;4.348;2023-08-30T14:28:41;20.10;99.90
21582;DHT22;10952;50.836;4.348;2023-08-30T14:31:08;20.00;99.90
21582;DHT22;10952;50.836;4.348;2023-08-30T14:33:34;19.90;99.90
21582;DHT22;10952;50.836;4.348;2023-08-30T14:36:00;20.00;99.90
21582;DHT22;10952;50.836;4.348;2023-08-30T14:38:28;20.10;99.90
21582;DHT22;10952;50.836;4.348;2023-08-30T14:40:57;20.30;99.90
21582;DHT22;10952;50.836;4.348;2023-08-30T14:43:23;20.10;99.90
21582;DHT22;10952;50.836;4.348;2023-08-30T14:45:49;20.10;99.90
21582;DHT22;10952;50.836;4.348;2023-08-30T14:48:15;20.00;99.90
21582;DHT22;10952;50.836;4.348;2023-08-30T14:50:40;19.80;99.90
21582;DHT22;10952;50.836;4.348;2023-08-30T14:53:06;19.70;99.90
21582;DHT22;10952;50.836;4.348;2023-08-30T14:55:32;19.70;99.90
21582;DHT22;10952;50.836;4.348;2023-08-30T14:57:58;19.90;99.90
21582;DHT22;10952;50.836;4.348;2023-08-30T15:00:24;20.00;99.90
21582;DHT22;10952;50.836;4.348;2023-08-30T15:02:50;20.00;99.90
21582;DHT22;10952;50.836;4.348;2023-08-30T15:05:15;20.10;99.90
21582;DHT22;10952;50.836;4.348;2023-08-30T15:07:41;20.20;99.90
21582;DHT22;10952;50.836;4.348;2023-08-30T15:10:07;20.20;99.90
21582;DHT22;10952;50.836;4.348;2023-08-30T15:12:33;20.40;99.90
21582;DHT22;10952;50.836;4.348;2023-08-30T15:14:58;20.30;99.90
21582;DHT22;10952;50.836;4.348;2023-08-30T15:17:24;20.30;99.90
21582;DHT22;10952;50.836;4.348;2023-08-30T15:19:50;20.10;99.90
21582;DHT22;10952;50.836;4.348;2023-08-30T15:22:15;20.00;99.90
21582;DHT22;10952;50.836;4.348;2023-08-30T15:24:41;20.00;99.90
21582;DHT22;10952;50.836;4.348;2023-08-30T15:27:06;20.10;99.90
21582;DHT22;10952;50.836;4.348;2023-08-30T15:29:32;20.10;99.90
21582;DHT22;10952;50.836;4.348;2023-08-30T15:31:58;20.00;99.90
21582;DHT22;10952;50.836;4.348;2023-08-30T15:34:23;20.10;99.90